Time;durP1;ratioP1;P1;durP2;ratioP2;P2;SDS_P1;SDS_P2;PMS_P1;PMS_P2;Temp;Humidity;BMP_temperature;BMP_pressure;BME280_temperature;BME280_humidity;BME280_pressure;Samples;Min_cycle;Max_cycle;Signal;HPM_P1;HPM_P2
2021/08/30 00:00:36;;;;;;;13.95;8.00;;;;;;;;;;5051702;28;20095;-80
2021/08/30 00:03:02;;;;;;;11.43;7.70;;;;;;;;;;5035433;28;20033;-80
2021/08/30 00:05:27;;;;;;;11.70;7.97;;;;;;;;;;5051690;28;20029;-80
2021/08/30 00:07:53;;;;;;;12.82;7.97;;;;;;;;;;5051804;28;20025;-80
2021/08/30 00:10:18;;;;;;;12.38;7.75;;;;;;;;;;5057577;28;20369;-80
2021/08/30 00:12:44;;;;;;;12.00;8.07;;;;;;;;;;5052322;28;20075;-80
2021/08/30 00:15:10;;;;;;;14.15;8.27;;;;;;;;;;5051848;28;20051;-80
2021/08/30 00:17:36;;;;;;;13.00;8.30;;;;;;;;;;5051722;28;20056;-80
2021/08/30 00:20:03;;;;;;;15.07;7.97;;;;;;;;;;5052952;28;20063;-80
2021/08/30 00:22:28;;;;;;;10.82;7.78;;;;;;;;;;5051847;28;20040;-80
2021/08/30 00:24:54;;;;;;;11.52;8.32;;;;;;;;;;5035794;28;20025;-80
2021/08/30 00:27:19;;;;;;;11.40;7.25;;;;;;;;;;5035486;28;20430;-80
2021/08/30 00:29:44;;;;;;;12.35;7.93;;;;;;;;;;5051598;28;20041;-80
2021/08/30 00:32:10;;;;;;;13.13;7.70;;;;;;;;;;5051309;28;20029;-80
2021/08/30 00:34:35;;;;;;;12.07;7.97;;;;;;;;;;5051907;28;20053;-80
2021/08/30 00:37:01;;;;;;;11.30;7.55;;;;;;;;;;5051407;28;20039;-80
2021/08/30 00:39:26;;;;;;;9.88;7.18;;;;;;;;;;5051699;28;20020;-80
2021/08/30 00:41:53;;;;;;;12.23;7.47;;;;;;;;;;5034917;28;20020;-80
2021/08/30 00:44:19;;;;;;;12.80;8.23;;;;;;;;;;5052996;28;20052;-80
2021/08/30 00:46:44;;;;;;;12.02;7.53;;;;;;;;;;5034627;28;20044;-80
2021/08/30 00:49:09;;;;;;;11.30;7.88;;;;;;;;;;5052926;28;20494;-80
2021/08/30 00:51:35;;;;;;;12.93;7.53;;;;;;;;;;5055030;28;20053;-80
2021/08/30 00:54:02;;;;;;;12.40;7.80;;;;;;;;;;5039025;28;20094;-80
2021/08/30 00:56:27;;;;;;;19.35;8.00;;;;;;;;;;5055248;28;20120;-80
2021/08/30 00:58:53;;;;;;;12.60;8.20;;;;;;;;;;5055164;28;20583;-80
2021/08/30 01:01:19;;;;;;;11.23;7.75;;;;;;;;;;5038301;28;20048;-80
2021/08/30 01:03:44;;;;;;;13.80;8.20;;;;;;;;;;5038374;28;20025;-80
2021/08/30 01:06:35;;;;;;;11.30;7.38;;;;;;;;;;5038449;28;20029;-80
2021/08/30 01:09:38;;;;;;;13.13;7.80;;;;;;;;;;5054784;28;20048;-80
2021/08/30 01:12:08;;;;;;;12.20;7.72;;;;;;;;;;5055819;28;20115;-80
2021/08/30 01:14:48;;;;;;;12.55;7.72;;;;;;;;;;5054870;28;20036;-80
2021/08/30 01:17:16;;;;;;;11.55;7.10;;;;;;;;;;5055854;28;20056;-80
2021/08/30 01:19:47;;;;;;;11.13;7.53;;;;;;;;;;5056183;28;20021;-80
2021/08/30 01:22:15;;;;;;;13.00;7.63;;;;;;;;;;5056155;28;20361;-80
2021/08/30 01:24:41;;;;;;;12.85;7.80;;;;;;;;;;5038076;28;20025;-80
2021/08/30 01:27:07;;;;;;;13.27;7.88;;;;;;;;;;5038129;28;20078;-80
2021/08/30 01:29:43;;;;;;;12.63;7.53;;;;;;;;;;5038054;28;20037;-80
2021/08/30 01:32:30;;;;;;;12.52;7.40;;;;;;;;;;5051716;28;20029;-80
2021/08/30 01:34:59;;;;;;;12.25;7.55;;;;;;;;;;5042741;28;20021;-80
2021/08/30 01:37:25;;;;;;;13.63;7.82;;;;;;;;;;5055538;28;20032;-80
2021/08/30 01:39:52;;;;;;;15.05;6.95;;;;;;;;;;5054634;28;20494;-80
2021/08/30 01:42:18;;;;;;;11.95;7.80;;;;;;;;;;5055269;28;20107;-80
2021/08/30 01:44:45;;;;;;;12.98;7.43;;;;;;;;;;5054621;28;20539;-80
2021/08/30 01:47:11;;;;;;;12.05;7.57;;;;;;;;;;5054032;28;20380;-80
2021/08/30 01:49:37;;;;;;;14.48;7.40;;;;;;;;;;5055655;28;20490;-80
2021/08/30 01:52:03;;;;;;;11.93;7.15;;;;;;;;;;5020650;28;20045;-80
2021/08/30 01:54:29;;;;;;;10.80;6.93;;;;;;;;;;5054292;28;20032;-80
2021/08/30 01:56:56;;;;;;;11.63;7.13;;;;;;;;;;5053757;28;20028;-80
2021/08/30 02:02:08;;;;;;;12.50;7.50;;;;;;;;;;5054260;28;20498;-80
2021/08/30 02:04:35;;;;;;;10.13;7.68;;;;;;;;;;5054121;28;20488;-80
2021/08/30 02:07:03;;;;;;;13.00;8.15;;;;;;;;;;5055059;28;20079;-80
2021/08/30 02:09:28;;;;;;;11.60;7.32;;;;;;;;;;5037388;28;20059;-80
2021/08/30 02:11:54;;;;;;;11.60;7.20;;;;;;;;;;5053624;28;20041;-80
2021/08/30 02:14:20;;;;;;;11.38;7.28;;;;;;;;;;5053676;28;20036;-80
2021/08/30 02:16:49;;;;;;;13.18;8.02;;;;;;;;;;5055221;28;20029;-80
2021/08/30 02:19:24;;;;;;;10.75;7.53;;;;;;;;;;5040651;28;20114;-80
2021/08/30 02:22:21;;;;;;;12.82;7.90;;;;;;;;;;5054777;28;20440;-80
2021/08/30 02:24:54;;;;;;;13.20;8.13;;;;;;;;;;5053119;28;20587;-80
2021/08/30 02:27:28;;;;;;;11.50;7.68;;;;;;;;;;5054878;28;20060;-80
2021/08/30 02:30:02;;;;;;;11.75;7.95;;;;;;;;;;5054638;28;20162;-80
2021/08/30 02:32:29;;;;;;;12.25;7.68;;;;;;;;;;5054597;28;20021;-80
2021/08/30 02:34:56;;;;;;;13.13;8.30;;;;;;;;;;5053404;28;20028;-80
2021/08/30 02:37:24;;;;;;;12.13;7.95;;;;;;;;;;5053494;28;20032;-80
2021/08/30 02:39:51;;;;;;;12.05;8.02;;;;;;;;;;5053466;28;20020;-80
2021/08/30 02:42:17;;;;;;;10.45;7.68;;;;;;;;;;5054527;28;20381;-80
2021/08/30 02:44:43;;;;;;;12.40;7.78;;;;;;;;;;5053206;28;20028;-80
2021/08/30 02:47:10;;;;;;;11.57;7.90;;;;;;;;;;5052907;28;20029;-80
2021/08/30 02:49:38;;;;;;;12.50;8.10;;;;;;;;;;5053297;28;20033;-80
2021/08/30 02:52:05;;;;;;;12.93;8.30;;;;;;;;;;5052611;28;20135;-80
2021/08/30 02:54:34;;;;;;;11.90;8.10;;;;;;;;;;5033247;28;20104;-80
2021/08/30 02:57:03;;;;;;;12.05;8.60;;;;;;;;;;5034562;28;20476;-80
2021/08/30 02:59:29;;;;;;;12.75;8.57;;;;;;;;;;5053163;28;20059;-80
2021/08/30 03:01:57;;;;;;;12.85;7.75;;;;;;;;;;5052676;28;20029;-80
2021/08/30 03:04:23;;;;;;;12.60;7.97;;;;;;;;;;5036749;28;20056;-80
2021/08/30 03:06:50;;;;;;;12.85;8.50;;;;;;;;;;5036124;28;20484;-80
2021/08/30 03:09:15;;;;;;;10.40;7.55;;;;;;;;;;5036161;28;20067;-80
2021/08/30 03:11:43;;;;;;;10.45;7.72;;;;;;;;;;5052123;28;20065;-80
2021/08/30 03:14:09;;;;;;;11.10;7.57;;;;;;;;;;5052582;28;20025;-80
2021/08/30 03:16:36;;;;;;;14.73;8.32;;;;;;;;;;5036001;28;20033;-80
2021/08/30 03:19:03;;;;;;;12.27;7.75;;;;;;;;;;5054045;28;20021;-80
2021/08/30 03:21:29;;;;;;;11.63;8.07;;;;;;;;;;5052625;28;20021;-80
2021/08/30 03:23:57;;;;;;;12.88;7.97;;;;;;;;;;5052325;28;20020;-80
2021/08/30 03:26:24;;;;;;;11.93;7.85;;;;;;;;;;5052761;28;20060;-80
2021/08/30 03:28:50;;;;;;;12.80;8.32;;;;;;;;;;5053529;28;20138;-80
2021/08/30 03:31:16;;;;;;;10.80;7.47;;;;;;;;;;5053465;28;20104;-80
2021/08/30 03:33:43;;;;;;;13.55;8.45;;;;;;;;;;5035987;28;20024;-80
2021/08/30 03:36:10;;;;;;;14.95;8.05;;;;;;;;;;5052157;28;20111;-80
2021/08/30 03:38:37;;;;;;;13.70;8.75;;;;;;;;;;5052258;28;20048;-80
2021/08/30 03:41:03;;;;;;;12.70;8.60;;;;;;;;;;5052213;28;20013;-80
2021/08/30 03:43:29;;;;;;;13.93;8.75;;;;;;;;;;5052575;28;20029;-80
2021/08/30 03:45:56;;;;;;;13.38;9.05;;;;;;;;;;5052221;28;20025;-80
2021/08/30 03:48:23;;;;;;;13.07;8.32;;;;;;;;;;5052168;28;20033;-80
2021/08/30 03:50:50;;;;;;;11.73;8.32;;;;;;;;;;5035028;28;20489;-80
2021/08/30 03:53:19;;;;;;;12.07;8.25;;;;;;;;;;5051939;28;20021;-80
2021/08/30 03:55:46;;;;;;;14.13;9.15;;;;;;;;;;5052041;28;20033;-80
2021/08/30 03:58:12;;;;;;;13.00;8.93;;;;;;;;;;5053154;28;20408;-80
2021/08/30 04:00:38;;;;;;;14.38;9.18;;;;;;;;;;5053563;28;20028;-80
2021/08/30 04:03:04;;;;;;;16.23;9.35;;;;;;;;;;5052005;28;20028;-80
2021/08/30 04:05:30;;;;;;;14.05;8.73;;;;;;;;;;5052016;28;20064;-80
2021/08/30 04:07:59;;;;;;;16.35;9.25;;;;;;;;;;5051926;28;20032;-80
2021/08/30 04:10:26;;;;;;;14.65;9.88;;;;;;;;;;5053123;28;20021;-80
2021/08/30 04:12:54;;;;;;;12.27;8.55;;;;;;;;;;5051872;28;20028;-80
2021/08/30 04:15:20;;;;;;;14.73;8.95;;;;;;;;;;5053252;28;20036;-80
2021/08/30 04:17:45;;;;;;;11.18;8.40;;;;;;;;;;5053334;28;20415;-80
2021/08/30 04:20:11;;;;;;;12.98;8.60;;;;;;;;;;5032463;28;20488;-80
2021/08/30 04:22:37;;;;;;;14.18;8.50;;;;;;;;;;5052478;28;20072;-80
2021/08/30 04:25:04;;;;;;;14.73;9.32;;;;;;;;;;5021961;28;20041;-80
2021/08/30 04:27:29;;;;;;;15.38;9.45;;;;;;;;;;5056679;28;20112;-80
2021/08/30 04:29:55;;;;;;;15.15;9.38;;;;;;;;;;5055942;28;20136;-80
2021/08/30 04:32:20;;;;;;;12.25;8.77;;;;;;;;;;5022407;28;20024;-80
2021/08/30 04:34:45;;;;;;;16.02;9.80;;;;;;;;;;5039614;28;20025;-80
2021/08/30 04:37:11;;;;;;;13.52;9.13;;;;;;;;;;5039068;28;20067;-80
2021/08/30 04:39:37;;;;;;;15.68;9.45;;;;;;;;;;5038598;28;20027;-80
2021/08/30 04:42:04;;;;;;;13.52;9.02;;;;;;;;;;5055385;28;20400;-80
2021/08/30 04:44:30;;;;;;;15.23;9.63;;;;;;;;;;5055532;28;20424;-80
2021/08/30 04:46:56;;;;;;;13.27;8.90;;;;;;;;;;5038944;28;20063;-80
2021/08/30 04:49:21;;;;;;;16.45;9.57;;;;;;;;;;5039172;28;20113;-80
2021/08/30 04:51:46;;;;;;;14.25;9.63;;;;;;;;;;5038481;28;20041;-80
2021/08/30 04:54:12;;;;;;;17.85;10.63;;;;;;;;;;5035549;28;20034;-80
2021/08/30 04:56:37;;;;;;;15.40;10.27;;;;;;;;;;5037949;28;20028;-80
2021/08/30 04:59:03;;;;;;;15.10;9.38;;;;;;;;;;5038698;28;20476;-80
2021/08/30 05:01:28;;;;;;;15.45;10.23;;;;;;;;;;5039089;28;20132;-80
2021/08/30 05:03:54;;;;;;;14.15;9.45;;;;;;;;;;5055268;28;20037;-80
2021/08/30 05:06:19;;;;;;;16.70;10.00;;;;;;;;;;5056614;28;20021;-80
2021/08/30 05:08:45;;;;;;;13.55;9.13;;;;;;;;;;5056529;28;20025;-80
2021/08/30 05:11:10;;;;;;;16.20;10.65;;;;;;;;;;5063333;28;20032;-80
2021/08/30 05:13:35;;;;;;;16.58;10.52;;;;;;;;;;5038529;28;20025;-80
2021/08/30 05:16:01;;;;;;;14.38;10.07;;;;;;;;;;5038325;28;20063;-80
2021/08/30 05:18:26;;;;;;;14.52;9.70;;;;;;;;;;5038676;28;20112;-80
2021/08/30 05:20:53;;;;;;;15.60;10.43;;;;;;;;;;5054626;28;20059;-80
2021/08/30 05:23:18;;;;;;;19.33;10.90;;;;;;;;;;5054544;28;20110;-80
2021/08/30 05:25:44;;;;;;;18.73;11.05;;;;;;;;;;5056353;28;20068;-80
2021/08/30 05:28:10;;;;;;;17.20;10.82;;;;;;;;;;5054575;28;20032;-80
2021/08/30 05:30:36;;;;;;;14.68;11.23;;;;;;;;;;5021615;28;20029;-81
2021/08/30 05:33:01;;;;;;;18.80;11.18;;;;;;;;;;5038176;28;20048;-80
2021/08/30 05:35:27;;;;;;;17.52;10.63;;;;;;;;;;5037425;28;20477;-80
2021/08/30 05:37:52;;;;;;;18.35;10.75;;;;;;;;;;5054346;28;20481;-80
2021/08/30 05:40:18;;;;;;;16.70;10.80;;;;;;;;;;5021238;28;20032;-80
2021/08/30 05:42:43;;;;;;;18.13;11.40;;;;;;;;;;5038058;28;20127;-80
2021/08/30 05:45:09;;;;;;;17.63;11.90;;;;;;;;;;5037648;28;20127;-80
2021/08/30 05:47:34;;;;;;;19.55;11.00;;;;;;;;;;5055927;28;20032;-80
2021/08/30 05:50:00;;;;;;;19.15;12.68;;;;;;;;;;5055365;28;20388;-80
2021/08/30 05:52:25;;;;;;;18.98;11.93;;;;;;;;;;5055434;28;20041;-80
2021/08/30 05:54:51;;;;;;;20.85;12.55;;;;;;;;;;5021100;28;20481;-80
2021/08/30 05:57:17;;;;;;;17.58;11.35;;;;;;;;;;5054202;28;20025;-80
2021/08/30 05:59:42;;;;;;;21.55;12.77;;;;;;;;;;5054173;28;20537;-80
2021/08/30 06:02:10;;;;;;;20.55;12.25;;;;;;;;;;5054256;28;20036;-80
2021/08/30 06:04:36;;;;;;;19.90;11.93;;;;;;;;;;5042115;28;20025;-80
2021/08/30 06:07:01;;;;;;;17.02;11.77;;;;;;;;;;5054127;28;20036;-80
2021/08/30 06:09:29;;;;;;;26.40;12.88;;;;;;;;;;5054919;28;20028;-80
2021/08/30 06:11:54;;;;;;;20.55;12.23;;;;;;;;;;5058224;28;20083;-80
2021/08/30 06:14:20;;;;;;;20.23;12.85;;;;;;;;;;5037172;28;20435;-80
2021/08/30 06:16:45;;;;;;;20.48;12.77;;;;;;;;;;5053699;28;20036;-80
2021/08/30 06:19:11;;;;;;;19.38;13.10;;;;;;;;;;5053658;28;20392;-80
2021/08/30 06:21:36;;;;;;;19.35;12.80;;;;;;;;;;5034047;28;20040;-80
2021/08/30 06:24:01;;;;;;;19.40;12.73;;;;;;;;;;5052570;28;20108;-80
2021/08/30 06:26:27;;;;;;;19.17;12.00;;;;;;;;;;5033798;28;20104;-80
2021/08/30 06:28:52;;;;;;;20.00;12.95;;;;;;;;;;5048211;28;20054;-80
2021/08/30 06:31:17;;;;;;;19.55;12.55;;;;;;;;;;5036960;28;20047;-80
2021/08/30 06:33:43;;;;;;;19.60;12.70;;;;;;;;;;5035877;28;20656;-80
2021/08/30 06:36:09;;;;;;;20.00;12.85;;;;;;;;;;5020208;28;20025;-80
2021/08/30 06:38:35;;;;;;;19.13;12.52;;;;;;;;;;5020672;28;20032;-80
2021/08/30 06:41:00;;;;;;;23.08;13.23;;;;;;;;;;5054326;28;20492;-81
2021/08/30 06:43:26;;;;;;;20.75;13.52;;;;;;;;;;5056413;28;20032;-80
2021/08/30 06:45:51;;;;;;;21.67;14.02;;;;;;;;;;5038789;28;20435;-81
2021/08/30 06:48:17;;;;;;;21.45;13.63;;;;;;;;;;5054576;28;20428;-81
2021/08/30 06:50:42;;;;;;;21.42;12.70;;;;;;;;;;5054973;28;20063;-80
2021/08/30 06:53:11;;;;;;;23.05;13.70;;;;;;;;;;5037998;28;20424;-80
2021/08/30 06:55:37;;;;;;;23.83;14.68;;;;;;;;;;5021343;28;20037;-80
2021/08/30 06:58:03;;;;;;;23.52;13.82;;;;;;;;;;5037617;28;20059;-80
2021/08/30 07:00:29;;;;;;;21.58;13.52;;;;;;;;;;5055335;28;20059;-80
2021/08/30 07:02:54;;;;;;;24.65;14.48;;;;;;;;;;5054074;28;20028;-81
2021/08/30 07:05:21;;;;;;;23.42;14.27;;;;;;;;;;5037577;28;20053;-80
2021/08/30 07:07:46;;;;;;;20.27;13.82;;;;;;;;;;5022653;28;20036;-81
2021/08/30 07:10:11;;;;;;;25.02;15.13;;;;;;;;;;5054987;28;20025;-81
2021/08/30 07:12:37;;;;;;;22.00;14.63;;;;;;;;;;5055273;28;20178;-81
2021/08/30 07:15:03;;;;;;;25.38;14.55;;;;;;;;;;5038308;28;20033;-81
2021/08/30 07:17:28;;;;;;;24.77;15.48;;;;;;;;;;5054855;28;20036;-81
2021/08/30 07:19:54;;;;;;;23.42;14.55;;;;;;;;;;5053715;28;20469;-81
2021/08/30 07:22:19;;;;;;;25.60;15.07;;;;;;;;;;5037955;28;20123;-81
2021/08/30 07:24:45;;;;;;;24.23;14.57;;;;;;;;;;5055021;28;20035;-81
2021/08/30 07:27:11;;;;;;;23.08;14.25;;;;;;;;;;5055325;28;20029;-81
2021/08/30 07:29:37;;;;;;;24.58;14.60;;;;;;;;;;5057155;28;20023;-81
2021/08/30 07:32:03;;;;;;;22.55;14.93;;;;;;;;;;5055689;28;20443;-81
2021/08/30 07:34:28;;;;;;;22.00;14.63;;;;;;;;;;5038268;28;20032;-81
2021/08/30 07:36:54;;;;;;;22.85;14.73;;;;;;;;;;5055803;28;20056;-81
2021/08/30 07:39:21;;;;;;;25.65;15.30;;;;;;;;;;5037333;28;20114;-81
2021/08/30 07:41:47;;;;;;;24.15;14.25;;;;;;;;;;5036622;28;20151;-81
2021/08/30 07:44:13;;;;;;;24.38;14.55;;;;;;;;;;5054742;28;20060;-81
2021/08/30 07:46:38;;;;;;;24.20;15.02;;;;;;;;;;5053297;28;20461;-81
2021/08/30 07:49:04;;;;;;;27.05;14.70;;;;;;;;;;5017375;28;20116;-81
2021/08/30 07:51:29;;;;;;;24.23;15.15;;;;;;;;;;5054487;28;20056;-81
2021/08/30 07:53:57;;;;;;;28.85;14.98;;;;;;;;;;5037037;28;20083;-81
2021/08/30 07:56:22;;;;;;;21.92;15.70;;;;;;;;;;5054710;28;20031;-81
2021/08/30 07:58:48;;;;;;;24.13;15.48;;;;;;;;;;5052378;28;20112;-81
2021/08/30 08:01:13;;;;;;;25.50;15.93;;;;;;;;;;5055217;28;20460;-81
2021/08/30 08:03:39;;;;;;;22.42;14.65;;;;;;;;;;5053778;28;20036;-81
2021/08/30 08:06:04;;;;;;;27.00;15.85;;;;;;;;;;5053165;28;20029;-81
2021/08/30 08:08:29;;;;;;;21.48;14.75;;;;;;;;;;5017424;28;20124;-81
2021/08/30 08:10:55;;;;;;;21.90;15.27;;;;;;;;;;5036713;28;20032;-81
2021/08/30 08:13:22;;;;;;;22.83;15.10;;;;;;;;;;5055241;28;20134;-81
2021/08/30 08:15:49;;;;;;;25.77;15.80;;;;;;;;;;5054463;28;20464;-81
2021/08/30 08:18:15;;;;;;;23.25;14.27;;;;;;;;;;5052692;28;20024;-81
2021/08/30 08:20:40;;;;;;;24.05;15.35;;;;;;;;;;5053077;28;20120;-81
2021/08/30 08:23:06;;;;;;;26.55;15.18;;;;;;;;;;5052636;28;20063;-81
2021/08/30 08:25:31;;;;;;;22.73;14.38;;;;;;;;;;5036132;28;20060;-80
2021/08/30 08:28:02;;;;;;;23.90;14.48;;;;;;;;;;5052542;28;20079;-80
2021/08/30 08:30:28;;;;;;;18.67;14.27;;;;;;;;;;5052596;28;20488;-81
2021/08/30 08:32:53;;;;;;;20.73;13.95;;;;;;;;;;5037691;28;20159;-81
2021/08/30 08:35:19;;;;;;;23.02;14.60;;;;;;;;;;5021864;28;20033;-81
2021/08/30 08:37:44;;;;;;;23.52;13.88;;;;;;;;;;5055402;28;20527;-81
2021/08/30 08:40:12;;;;;;;21.50;14.10;;;;;;;;;;5056054;28;20032;-81
2021/08/30 08:42:39;;;;;;;21.10;13.20;;;;;;;;;;5052747;28;20032;-81
2021/08/30 08:45:06;;;;;;;24.67;13.55;;;;;;;;;;5052586;28;20094;-81
2021/08/30 08:47:31;;;;;;;24.55;13.48;;;;;;;;;;5052375;28;20029;-81
2021/08/30 08:49:57;;;;;;;26.63;14.02;;;;;;;;;;5052747;28;20036;-81
2021/08/30 08:52:24;;;;;;;20.83;13.57;;;;;;;;;;5051974;28;20052;-81
2021/08/30 08:54:49;;;;;;;17.73;13.13;;;;;;;;;;5052754;28;20123;-81
2021/08/30 08:57:15;;;;;;;18.83;12.82;;;;;;;;;;5019136;28;20064;-81
2021/08/30 09:00:04;;;;;;;19.08;13.43;;;;;;;;;;5035607;28;20463;-81
2021/08/30 09:02:32;;;;;;;22.48;13.15;;;;;;;;;;5039585;28;20083;-81
2021/08/30 09:04:58;;;;;;;18.45;12.75;;;;;;;;;;5052272;28;20040;-81
2021/08/30 09:07:37;;;;;;;17.60;12.82;;;;;;;;;;5052464;28;20034;-81
2021/08/30 09:10:04;;;;;;;19.23;12.68;;;;;;;;;;5054662;28;20017;-81
2021/08/30 09:12:30;;;;;;;16.63;11.93;;;;;;;;;;5066167;28;20104;-81
2021/08/30 09:14:55;;;;;;;19.77;13.05;;;;;;;;;;5058788;28;20484;-81
2021/08/30 09:17:21;;;;;;;18.60;12.85;;;;;;;;;;5058056;28;20421;-81
2021/08/30 09:19:51;;;;;;;17.77;13.48;;;;;;;;;;5057237;28;20056;-81
2021/08/30 09:22:28;;;;;;;19.80;12.15;;;;;;;;;;5057504;28;20112;-81
2021/08/30 09:25:07;;;;;;;17.58;12.48;;;;;;;;;;5058173;28;20472;-81
2021/08/30 09:27:37;;;;;;;17.60;11.90;;;;;;;;;;5058140;28;20025;-81
2021/08/30 09:30:05;;;;;;;18.70;12.88;;;;;;;;;;5041348;28;20484;-81
2021/08/30 09:32:34;;;;;;;17.80;11.98;;;;;;;;;;5059026;28;20385;-81
2021/08/30 09:35:01;;;;;;;18.52;12.40;;;;;;;;;;5058843;28;20021;-81
2021/08/30 09:37:27;;;;;;;17.92;11.38;;;;;;;;;;5056865;28;20031;-81
2021/08/30 09:39:57;;;;;;;17.00;10.90;;;;;;;;;;5056758;28;20036;-81
2021/08/30 09:42:23;;;;;;;20.48;10.75;;;;;;;;;;5059867;28;20025;-81
2021/08/30 09:44:50;;;;;;;15.90;11.00;;;;;;;;;;5061755;28;20033;-81
2021/08/30 09:47:18;;;;;;;14.65;10.50;;;;;;;;;;5025097;28;20039;-81
2021/08/30 09:49:48;;;;;;;14.55;10.38;;;;;;;;;;5058036;28;20032;-81
2021/08/30 09:52:13;;;;;;;16.65;10.90;;;;;;;;;;5055886;28;20126;-81
2021/08/30 09:54:39;;;;;;;17.95;11.27;;;;;;;;;;5056249;28;20021;-81
2021/08/30 09:57:05;;;;;;;14.50;10.18;;;;;;;;;;5039703;28;20123;-81
2021/08/30 09:59:31;;;;;;;17.83;10.30;;;;;;;;;;5058094;28;20053;-81
2021/08/30 10:02:00;;;;;;;15.68;10.25;;;;;;;;;;5057170;28;20029;-81
2021/08/30 10:04:26;;;;;;;17.77;10.50;;;;;;;;;;5056396;28;20035;-81
2021/08/30 10:06:53;;;;;;;15.68;10.27;;;;;;;;;;5056105;28;20049;-81
2021/08/30 10:09:20;;;;;;;13.27;9.90;;;;;;;;;;5056161;28;20037;-81
2021/08/30 10:11:48;;;;;;;14.38;10.35;;;;;;;;;;5074012;28;20080;-82
2021/08/30 10:14:21;;;;;;;15.10;9.68;;;;;;;;;;5056056;28;20020;-81
2021/08/30 10:16:47;;;;;;;16.42;9.85;;;;;;;;;;5047221;28;20384;-81
2021/08/30 10:19:12;;;;;;;15.13;10.48;;;;;;;;;;5038803;28;20025;-81
2021/08/30 10:21:46;;;;;;;12.82;9.73;;;;;;;;;;5055857;28;20025;-82
2021/08/30 10:24:15;;;;;;;16.15;10.50;;;;;;;;;;5038772;28;20136;-81
2021/08/30 10:26:42;;;;;;;13.93;10.40;;;;;;;;;;5056850;28;20040;-81
2021/08/30 10:29:11;;;;;;;13.48;10.25;;;;;;;;;;5056160;28;20039;-82
2021/08/30 10:31:48;;;;;;;14.63;11.07;;;;;;;;;;5055895;28;20047;-81
2021/08/30 10:34:51;;;;;;;13.45;9.60;;;;;;;;;;5057916;28;20017;-82
2021/08/30 10:37:19;;;;;;;12.68;9.80;;;;;;;;;;5057580;28;20120;-82
2021/08/30 10:39:51;;;;;;;13.32;9.90;;;;;;;;;;5059040;28;20028;-82
2021/08/30 10:42:17;;;;;;;13.68;9.15;;;;;;;;;;5057217;28;20025;-82
2021/08/30 10:44:49;;;;;;;12.55;9.15;;;;;;;;;;5040458;28;20068;-82
2021/08/30 10:47:15;;;;;;;11.73;9.38;;;;;;;;;;5057015;28;20025;-82
2021/08/30 10:49:42;;;;;;;13.90;9.20;;;;;;;;;;5057206;28;20362;-82
2021/08/30 10:52:15;;;;;;;10.98;9.00;;;;;;;;;;5055151;28;20106;-82
2021/08/30 10:54:52;;;;;;;12.77;8.73;;;;;;;;;;5058681;28;20392;-82
2021/08/30 10:57:18;;;;;;;13.10;8.48;;;;;;;;;;5056420;28;20029;-82
2021/08/30 10:59:47;;;;;;;10.95;8.40;;;;;;;;;;5041148;28;20028;-82
2021/08/30 11:02:13;;;;;;;10.52;8.43;;;;;;;;;;5057082;28;20024;-82
2021/08/30 11:04:41;;;;;;;11.50;8.48;;;;;;;;;;5039833;28;20025;-82
2021/08/30 11:07:08;;;;;;;12.25;8.60;;;;;;;;;;5056573;28;20495;-82
2021/08/30 11:09:35;;;;;;;14.15;8.75;;;;;;;;;;5056817;28;20025;-82
2021/08/30 11:12:11;;;;;;;12.20;8.65;;;;;;;;;;5069787;28;20103;-83
2021/08/30 11:14:37;;;;;;;12.30;9.00;;;;;;;;;;5056478;28;20035;-82
2021/08/30 11:17:04;;;;;;;11.60;8.52;;;;;;;;;;5055353;28;20029;-82
2021/08/30 11:19:30;;;;;;;12.52;9.15;;;;;;;;;;5056395;28;20089;-83
2021/08/30 11:22:00;;;;;;;11.25;8.57;;;;;;;;;;5057928;28;20045;-82
2021/08/30 11:24:35;;;;;;;11.88;9.40;;;;;;;;;;5054353;28;20041;-82
2021/08/30 11:27:22;;;;;;;13.32;8.75;;;;;;;;;;5052517;28;20074;-82
2021/08/30 11:29:52;;;;;;;13.85;8.95;;;;;;;;;;5053567;28;20485;-82
2021/08/30 11:32:23;;;;;;;12.68;8.82;;;;;;;;;;5052038;28;20021;-82
2021/08/30 11:34:51;;;;;;;11.55;8.38;;;;;;;;;;5052989;28;20021;-82
2021/08/30 11:37:22;;;;;;;10.15;8.02;;;;;;;;;;5053421;28;20103;-82
2021/08/30 11:39:50;;;;;;;12.57;7.95;;;;;;;;;;5053207;28;20020;-82
2021/08/30 11:42:21;;;;;;;11.00;7.72;;;;;;;;;;5035544;28;20082;-83
2021/08/30 11:44:47;;;;;;;11.90;7.95;;;;;;;;;;5052021;28;20013;-83
2021/08/30 11:47:15;;;;;;;12.60;8.75;;;;;;;;;;5051875;28;20017;-83
2021/08/30 11:49:45;;;;;;;12.77;9.13;;;;;;;;;;5051825;28;20029;-83
2021/08/30 11:52:13;;;;;;;17.38;9.10;;;;;;;;;;5054392;28;20476;-83
2021/08/30 11:55:02;;;;;;;13.18;8.50;;;;;;;;;;5038166;28;20049;-83
2021/08/30 11:57:44;;;;;;;15.65;8.73;;;;;;;;;;5050800;28;20045;-83
2021/08/30 12:00:13;;;;;;;11.00;8.52;;;;;;;;;;5055861;28;20386;-83
2021/08/30 12:02:39;;;;;;;15.05;9.30;;;;;;;;;;5055309;28;20117;-83
2021/08/30 12:05:06;;;;;;;14.55;8.73;;;;;;;;;;5056139;28;20056;-83
2021/08/30 12:07:36;;;;;;;12.88;8.65;;;;;;;;;;5052251;28;20029;-83
2021/08/30 12:10:08;;;;;;;13.00;8.35;;;;;;;;;;5054039;28;20058;-83
2021/08/30 12:12:36;;;;;;;13.13;8.95;;;;;;;;;;5063221;28;20036;-83
2021/08/30 12:15:14;;;;;;;13.10;8.82;;;;;;;;;;5052933;28;20023;-83
2021/08/30 12:17:50;;;;;;;13.93;9.27;;;;;;;;;;5051921;28;20040;-83
2021/08/30 12:20:19;;;;;;;13.13;8.70;;;;;;;;;;5053063;28;20060;-83
2021/08/30 12:22:49;;;;;;;14.00;8.95;;;;;;;;;;5053413;28;20021;-83
2021/08/30 12:25:26;;;;;;;12.50;9.10;;;;;;;;;;5051968;28;20559;-83
2021/08/30 12:27:53;;;;;;;12.63;8.50;;;;;;;;;;5053105;28;20033;-83
2021/08/30 12:30:24;;;;;;;11.27;7.97;;;;;;;;;;5052985;28;20025;-83
2021/08/30 12:33:01;;;;;;;12.93;8.13;;;;;;;;;;5051811;28;20407;-83
2021/08/30 12:35:30;;;;;;;11.88;8.18;;;;;;;;;;5042772;28;20384;-83
2021/08/30 12:37:58;;;;;;;11.95;8.55;;;;;;;;;;5052029;28;20051;-84
2021/08/30 12:40:26;;;;;;;11.88;7.85;;;;;;;;;;5053094;28;20064;-83
2021/08/30 12:42:51;;;;;;;9.32;7.25;;;;;;;;;;5052075;28;20032;-83
2021/08/30 12:45:18;;;;;;;12.45;7.57;;;;;;;;;;5055404;28;20028;-83
2021/08/30 12:47:43;;;;;;;11.32;7.35;;;;;;;;;;5040275;28;20044;-83
2021/08/30 12:50:10;;;;;;;12.38;7.88;;;;;;;;;;5056502;28;20477;-83
2021/08/30 12:52:35;;;;;;;12.02;7.78;;;;;;;;;;5056977;28;20041;-83
2021/08/30 12:55:03;;;;;;;12.02;7.40;;;;;;;;;;5058237;28;20051;-83
2021/08/30 12:57:28;;;;;;;12.43;7.25;;;;;;;;;;5057252;28;20029;-83
2021/08/30 12:59:54;;;;;;;9.55;7.40;;;;;;;;;;5036531;28;20394;-83
2021/08/30 13:02:19;;;;;;;10.45;7.18;;;;;;;;;;5023617;28;20032;-83
2021/08/30 13:04:45;;;;;;;11.75;7.25;;;;;;;;;;5057234;28;20029;-83
2021/08/30 13:07:10;;;;;;;9.75;7.30;;;;;;;;;;5024098;28;20120;-84
2021/08/30 13:09:35;;;;;;;10.48;7.18;;;;;;;;;;5023145;28;20032;-83
2021/08/30 13:12:01;;;;;;;10.13;7.47;;;;;;;;;;5070151;28;20031;-83
2021/08/30 13:14:26;;;;;;;9.70;7.15;;;;;;;;;;5058611;28;20033;-83
2021/08/30 13:16:52;;;;;;;10.48;6.88;;;;;;;;;;5039526;28;20031;-83
2021/08/30 13:19:18;;;;;;;9.70;6.97;;;;;;;;;;5056634;28;20092;-83
2021/08/30 13:21:43;;;;;;;9.25;7.15;;;;;;;;;;5039692;28;20063;-83
2021/08/30 13:24:08;;;;;;;8.93;6.97;;;;;;;;;;5039314;28;20029;-83
2021/08/30 13:26:34;;;;;;;11.55;6.93;;;;;;;;;;5039453;28;20044;-84
2021/08/30 13:29:02;;;;;;;10.70;7.43;;;;;;;;;;5039724;28;20025;-83
2021/08/30 13:31:27;;;;;;;9.77;6.82;;;;;;;;;;5039941;28;20029;-84
2021/08/30 13:33:53;;;;;;;11.30;6.57;;;;;;;;;;5040685;28;20036;-83
2021/08/30 13:36:18;;;;;;;8.93;6.53;;;;;;;;;;5039816;28;20412;-83
2021/08/30 13:38:44;;;;;;;8.80;6.38;;;;;;;;;;5040375;28;20507;-84
2021/08/30 13:41:09;;;;;;;10.40;6.75;;;;;;;;;;5056243;28;20033;-84
2021/08/30 13:43:35;;;;;;;11.50;7.20;;;;;;;;;;5039232;28;20048;-83
2021/08/30 13:46:02;;;;;;;9.75;7.10;;;;;;;;;;5056310;28;20031;-83
2021/08/30 13:48:27;;;;;;;10.20;7.05;;;;;;;;;;5056057;28;20468;-83
2021/08/30 13:50:53;;;;;;;11.18;6.85;;;;;;;;;;5038876;28;20039;-84
2021/08/30 13:53:18;;;;;;;14.73;7.07;;;;;;;;;;5055693;28;20021;-84
2021/08/30 13:55:44;;;;;;;10.48;6.93;;;;;;;;;;5055378;28;20388;-84
2021/08/30 13:58:09;;;;;;;9.30;6.47;;;;;;;;;;5022236;28;20029;-84
2021/08/30 14:00:35;;;;;;;10.15;7.38;;;;;;;;;;5038884;28;20033;-84
2021/08/30 14:03:00;;;;;;;10.00;6.95;;;;;;;;;;5056122;28;20051;-84
2021/08/30 14:05:27;;;;;;;9.63;6.18;;;;;;;;;;5055233;28;20411;-84
2021/08/30 14:07:53;;;;;;;9.15;6.40;;;;;;;;;;5054927;28;20028;-83
2021/08/30 14:10:19;;;;;;;11.05;6.85;;;;;;;;;;5055161;28;20074;-83
2021/08/30 14:12:44;;;;;;;10.68;6.80;;;;;;;;;;5054681;28;20033;-83
2021/08/30 14:15:11;;;;;;;9.63;6.97;;;;;;;;;;5038522;28;20052;-83
2021/08/30 14:17:38;;;;;;;10.00;6.57;;;;;;;;;;5038407;28;20032;-83
2021/08/30 14:20:06;;;;;;;10.73;6.65;;;;;;;;;;5054900;28;20170;-83
2021/08/30 14:22:31;;;;;;;9.18;6.60;;;;;;;;;;5038158;28;20085;-83
2021/08/30 14:24:57;;;;;;;11.23;7.18;;;;;;;;;;5055069;28;20081;-84
2021/08/30 14:27:22;;;;;;;11.95;7.32;;;;;;;;;;5054842;28;20057;-84
2021/08/30 14:29:48;;;;;;;13.57;6.63;;;;;;;;;;5038109;28;20033;-83